createdAt,value
2022-12-03T00:16:52.683Z,100750.16
2022-12-03T00:19:31.329Z,100755.59
2022-12-03T00:22:02.046Z,100751.12
2022-12-03T00:24:34.637Z,100756.44
2022-12-03T00:29:57.115Z,100754.31
2022-12-03T00:32:24.015Z,100760.19
2022-12-03T00:34:50.702Z,100760.38
2022-12-03T00:37:17.402Z,100761.63
2022-12-03T00:39:43.950Z,100767.84
2022-12-03T00:42:10.658Z,100762.31
2022-12-03T00:48:29.849Z,100766.75
2022-12-03T00:50:56.398Z,100763.19
2022-12-03T00:53:22.920Z,100769.25
2022-12-03T00:55:50.698Z,100766.37
2022-12-03T00:58:18.049Z,100758.06
2022-12-03T01:00:44.657Z,100763.47
2022-12-03T01:03:11.318Z,100757.78
2022-12-03T01:05:37.940Z,100757.44
2022-12-03T01:08:04.753Z,100760.09
2022-12-03T01:10:31.427Z,100760.69
2022-12-03T01:12:57.946Z,100758.31
2022-12-03T01:15:24.493Z,100765.09
2022-12-03T01:17:51.017Z,100766.25
2022-12-03T01:20:17.713Z,100760.97
2022-12-03T01:22:44.869Z,100761.66
2022-12-03T01:25:11.571Z,100765.09
2022-12-03T01:27:38.144Z,100761.75
2022-12-03T01:30:05.952Z,100760.72
2022-12-03T01:32:32.538Z,100759.28
2022-12-03T01:34:59.128Z,100761.12
2022-12-03T01:37:26.747Z,100765.53
2022-12-03T01:39:53.699Z,100771.84
2022-12-03T01:42:30.213Z,100769.97
2022-12-03T01:44:59.077Z,100762.19
2022-12-03T01:47:30.867Z,100764.25
2022-12-03T01:50:30.160Z,100774.84
2022-12-03T01:53:00.089Z,100773.97
2022-12-03T01:55:26.828Z,100773.00
2022-12-03T01:57:57.287Z,100772.91
2022-12-03T02:00:29.279Z,100762.22
2022-12-03T02:03:07.401Z,100776.69
2022-12-03T02:05:34.513Z,100771.84
2022-12-03T02:08:01.308Z,100767.56
2022-12-03T02:10:33.542Z,100764.16
2022-12-03T02:13:05.085Z,100753.53
2022-12-03T02:15:31.841Z,100758.06
2022-12-03T02:17:59.758Z,100759.37
2022-12-03T02:20:26.666Z,100760.06
2022-12-03T02:22:53.128Z,100743.94
2022-12-03T02:25:23.135Z,100758.38
2022-12-03T02:27:50.957Z,100761.31
2022-12-03T02:30:20.819Z,100765.13
2022-12-03T02:32:48.993Z,100762.59
2022-12-03T02:35:18.460Z,100761.78
2022-12-03T02:37:47.667Z,100753.38
2022-12-03T02:40:19.898Z,100756.69
2022-12-03T02:42:47.713Z,100759.53
2022-12-03T02:45:22.592Z,100750.81
2022-12-03T02:47:52.718Z,100755.41
2022-12-03T02:50:24.064Z,100759.97
2022-12-03T02:52:53.355Z,100756.31
2022-12-03T02:55:20.899Z,100762.63
2022-12-03T02:57:50.156Z,100762.87
2022-12-03T03:00:17.847Z,100759.84
2022-12-03T03:19:38.270Z,100766.22
2022-12-03T03:22:04.906Z,100761.72
2022-12-03T03:24:32.536Z,100763.59
2022-12-03T03:26:59.148Z,100768.47
2022-12-03T03:29:25.765Z,100768.50
2022-12-03T03:31:52.481Z,100758.84
2022-12-03T03:34:19.088Z,100772.97
2022-12-03T03:36:46.596Z,100762.66
2022-12-03T03:39:13.943Z,100763.31
2022-12-03T03:41:41.197Z,100766.22
2022-12-03T03:44:08.929Z,100768.13
2022-12-03T03:46:37.048Z,100757.88
2022-12-03T03:49:05.690Z,100761.66
2022-12-03T03:51:34.646Z,100759.53
2022-12-03T03:54:03.956Z,100766.37
2022-12-03T03:56:30.700Z,100755.91
2022-12-03T03:58:57.262Z,100758.47
2022-12-03T04:01:24.371Z,100763.09
2022-12-03T04:03:50.993Z,100768.16
2022-12-03T04:06:17.789Z,100755.59
2022-12-03T04:08:44.478Z,100765.56
2022-12-03T04:11:29.612Z,100774.06
2022-12-03T04:13:56.139Z,100767.78
2022-12-03T04:16:22.710Z,100767.31
2022-12-03T04:18:49.365Z,100760.09
2022-12-03T04:21:36.857Z,100765.56
2022-12-03T04:24:04.366Z,100763.06
2022-12-03T04:26:49.619Z,100760.34
2022-12-03T04:29:16.239Z,100758.47
2022-12-03T04:32:23.523Z,100760.91
2022-12-03T04:35:08.869Z,100769.88
2022-12-03T04:37:35.873Z,100750.81
2022-12-03T04:40:02.407Z,100759.31
2022-12-03T04:46:47.508Z,100764.12
2022-12-03T04:49:14.035Z,100765.38
2022-12-03T04:51:40.594Z,100773.34
2022-12-03T04:54:11.613Z,100768.25
2022-12-03T04:56:38.202Z,100766.53
2022-12-03T04:59:04.917Z,100764.69
2022-12-03T05:01:31.576Z,100768.47
2022-12-03T05:03:58.385Z,100772.00
2022-12-03T05:06:24.984Z,100773.06
2022-12-03T05:08:51.530Z,100772.78
2022-12-03T05:11:18.403Z,100783.81
2022-12-03T05:13:44.923Z,100788.12
2022-12-03T05:16:11.476Z,100779.19
2022-12-03T05:18:38.152Z,100778.94
2022-12-03T05:21:04.762Z,100784.19
2022-12-03T05:23:31.359Z,100781.50
2022-12-03T05:25:57.902Z,100786.56
2022-12-03T05:28:24.506Z,100785.56
2022-12-03T05:30:52.052Z,100777.38
2022-12-03T05:33:18.696Z,100775.63
2022-12-03T05:35:45.237Z,100773.63
2022-12-03T05:38:11.840Z,100786.06
2022-12-03T05:40:38.441Z,100789.56
2022-12-03T05:43:05.169Z,100788.34
2022-12-03T05:45:35.582Z,100794.88
2022-12-03T05:48:03.646Z,100793.97
2022-12-03T05:50:33.399Z,100794.28
2022-12-03T05:53:00.388Z,100801.31
2022-12-03T05:55:27.927Z,100801.28
2022-12-03T05:57:54.711Z,100806.84
2022-12-03T06:00:26.480Z,100808.88
2022-12-03T06:02:54.284Z,100808.25
2022-12-03T06:05:21.862Z,100805.75
2022-12-03T06:07:50.072Z,100796.37
2022-12-03T06:10:22.650Z,100801.19
2022-12-03T06:12:49.654Z,100792.06
2022-12-03T06:15:16.708Z,100799.63
2022-12-03T06:17:43.291Z,100803.22
2022-12-03T06:20:14.154Z,100798.31
2022-12-03T06:22:40.823Z,100805.38
2022-12-03T06:25:10.069Z,100799.03
2022-12-03T06:27:36.836Z,100791.12
2022-12-03T06:30:05.273Z,100796.37
2022-12-03T06:32:31.878Z,100794.13
2022-12-03T06:34:58.447Z,100788.66
2022-12-03T06:37:25.040Z,100797.25
2022-12-03T06:39:51.581Z,100802.72
2022-12-03T06:42:18.162Z,100802.94
2022-12-03T06:44:44.692Z,100804.50
2022-12-03T06:47:11.276Z,100805.25
2022-12-03T06:49:37.976Z,100792.13
2022-12-03T06:52:04.639Z,100807.03
2022-12-03T06:54:31.307Z,100805.31
2022-12-03T06:56:57.871Z,100808.56
2022-12-03T06:59:24.436Z,100814.13
2022-12-03T07:01:51.040Z,100815.00
2022-12-03T07:04:17.643Z,100823.41
2022-12-03T07:06:44.241Z,100822.09
2022-12-03T07:09:10.942Z,100811.75
2022-12-03T07:11:40.776Z,100804.50
2022-12-03T07:14:09.160Z,100795.22
2022-12-03T07:16:36.172Z,100800.94
2022-12-03T07:19:05.247Z,100803.88
2022-12-03T07:21:32.263Z,100804.22
2022-12-03T07:23:58.809Z,100811.56
2022-12-03T07:26:25.368Z,100823.19
2022-12-03T07:31:35.723Z,100810.53
2022-12-03T07:34:02.351Z,100811.81
2022-12-03T07:36:28.939Z,100814.41
2022-12-03T07:38:55.517Z,100810.19
2022-12-03T07:41:27.004Z,100826.56
2022-12-03T07:43:53.579Z,100823.00
2022-12-03T07:46:20.213Z,100821.47
2022-12-03T07:54:31.570Z,100809.44
2022-12-03T07:57:01.967Z,100800.00
2022-12-03T08:00:00.239Z,100806.28
2022-12-03T08:02:46.889Z,100803.47
2022-12-03T08:05:14.132Z,100805.88
2022-12-03T08:07:41.206Z,100806.63
2022-12-03T08:10:08.008Z,100806.56
2022-12-03T08:12:41.241Z,100807.16
2022-12-03T08:15:18.867Z,100812.72
2022-12-03T08:17:51.066Z,100820.88
2022-12-03T08:23:21.630Z,100832.66
2022-12-03T08:25:51.539Z,100831.16
2022-12-03T08:28:19.622Z,100820.78
2022-12-03T08:34:06.920Z,100814.59
2022-12-03T08:36:33.804Z,100821.59
2022-12-03T08:39:05.562Z,100819.97
2022-12-03T08:42:14.188Z,100816.41
2022-12-03T08:44:41.208Z,100822.56
2022-12-03T08:49:50.488Z,100833.47
2022-12-03T08:52:20.902Z,100839.38
2022-12-03T08:54:54.423Z,100840.50
2022-12-03T08:57:28.540Z,100842.34
2022-12-03T09:00:16.889Z,100845.78
2022-12-03T09:02:49.800Z,100837.59
2022-12-03T09:05:21.103Z,100839.56
2022-12-03T09:07:47.782Z,100845.19
2022-12-03T09:10:14.842Z,100840.44
2022-12-03T09:12:41.407Z,100844.06
2022-12-03T09:15:08.430Z,100845.34
2022-12-03T09:17:35.005Z,100830.88
2022-12-03T09:20:01.769Z,100837.19
2022-12-03T09:22:31.795Z,100833.72
2022-12-03T09:24:58.351Z,100827.41
2022-12-03T09:27:24.914Z,100821.44
2022-12-03T09:29:51.524Z,100836.97
2022-12-03T09:32:18.966Z,100818.75
2022-12-03T09:34:46.459Z,100826.09
2022-12-03T09:37:13.014Z,100823.91
2022-12-03T09:39:39.764Z,100824.91
2022-12-03T09:42:06.340Z,100817.75
2022-12-03T09:44:34.450Z,100808.72
2022-12-03T09:47:02.717Z,100807.88
2022-12-03T09:49:31.987Z,100809.03
2022-12-03T09:52:01.815Z,100809.50
2022-12-03T09:54:30.168Z,100811.62
2022-12-03T09:56:59.324Z,100817.53
2022-12-03T09:59:31.436Z,100815.88
2022-12-03T10:01:58.370Z,100800.09
2022-12-03T10:04:28.433Z,100804.19
2022-12-03T10:06:57.440Z,100795.69
2022-12-03T10:09:27.245Z,100793.75
2022-12-03T10:11:56.530Z,100789.31
2022-12-03T10:14:23.287Z,100796.22
2022-12-03T10:19:39.642Z,100782.22
2022-12-03T10:22:06.223Z,100779.66
2022-12-03T10:24:42.635Z,100776.19
2022-12-03T10:30:34.618Z,100773.53
2022-12-03T10:33:18.497Z,100767.44
2022-12-03T10:35:45.541Z,100765.13
2022-12-03T10:38:17.952Z,100753.56
2022-12-03T10:40:45.224Z,100755.69
2022-12-03T10:43:17.839Z,100755.56
2022-12-03T10:45:49.144Z,100750.91
2022-12-03T10:48:29.855Z,100751.69
2022-12-03T10:51:04.804Z,100744.91
2022-12-03T10:53:36.130Z,100747.44
2022-12-03T10:56:06.432Z,100747.44
2022-12-03T11:03:44.720Z,100745.66
2022-12-03T11:06:16.412Z,100727.59
2022-12-03T11:08:43.863Z,100728.56
2022-12-03T11:11:18.852Z,100725.41
2022-12-03T11:13:47.081Z,100730.12
2022-12-03T11:16:44.491Z,100724.87
2022-12-03T11:19:38.175Z,100717.50
2022-12-03T11:22:09.653Z,100718.25
2022-12-03T11:24:38.163Z,100711.41
2022-12-03T11:27:29.204Z,100710.88
2022-12-03T11:30:56.561Z,100712.19
2022-12-03T11:33:28.848Z,100708.56
2022-12-03T11:36:04.652Z,100712.66
2022-12-03T11:38:52.416Z,100707.66
2022-12-03T11:41:30.671Z,100700.09
2022-12-03T11:44:00.061Z,100709.28
2022-12-03T11:46:46.261Z,100707.78
2022-12-03T11:49:46.473Z,100704.16
2022-12-03T11:52:23.957Z,100695.75
2022-12-03T11:55:19.215Z,100694.34
2022-12-03T11:58:58.562Z,100677.53
2022-12-03T12:01:45.233Z,100686.41
2022-12-03T12:04:28.701Z,100683.09
2022-12-03T12:06:55.461Z,100688.75
2022-12-03T12:09:50.910Z,100679.75
2022-12-03T12:12:21.027Z,100671.37
2022-12-03T12:17:36.792Z,100666.84
2022-12-03T12:20:24.591Z,100665.16
2022-12-03T12:22:53.339Z,100672.13
2022-12-03T12:25:59.951Z,100665.72
2022-12-03T12:29:16.286Z,100667.56
2022-12-03T12:31:59.523Z,100681.06
2022-12-03T12:34:26.001Z,100672.38
2022-12-03T12:39:35.901Z,100661.16
2022-12-03T12:42:22.415Z,100669.03
2022-12-03T12:45:13.926Z,100661.16
2022-12-03T12:47:59.578Z,100652.47
2022-12-03T12:50:26.211Z,100657.28
2022-12-03T12:52:56.909Z,100649.72
2022-12-03T12:56:38.615Z,100651.28
2022-12-03T12:59:33.178Z,100659.12
2022-12-03T13:02:00.666Z,100639.09
2022-12-03T13:04:30.589Z,100646.81
2022-12-03T13:06:57.143Z,100645.97
2022-12-03T13:09:25.975Z,100657.69
2022-12-03T13:11:55.777Z,100660.87
2022-12-03T13:14:45.234Z,100656.53
2022-12-03T13:17:29.873Z,100660.50
2022-12-03T13:20:06.763Z,100655.84
2022-12-03T13:22:34.455Z,100656.12
2022-12-03T13:26:09.276Z,100661.03
2022-12-03T13:29:24.761Z,100669.69
2022-12-03T13:34:47.566Z,100665.84
2022-12-03T13:37:19.420Z,100665.03
2022-12-03T13:39:50.439Z,100655.66
2022-12-03T13:42:35.793Z,100664.53
2022-12-03T13:45:03.570Z,100664.75
2022-12-03T13:47:30.090Z,100661.00
2022-12-03T13:50:03.624Z,100660.44
2022-12-03T13:52:34.656Z,100662.31
2022-12-03T13:55:02.629Z,100666.28
2022-12-03T13:57:29.158Z,100663.47
2022-12-03T13:59:57.101Z,100671.19
2022-12-03T14:02:23.846Z,100664.66
2022-12-03T14:04:54.100Z,100660.87
2022-12-03T14:07:23.355Z,100658.78
2022-12-03T14:09:50.215Z,100668.84
2022-12-03T14:12:25.719Z,100669.22
2022-12-03T14:14:52.933Z,100668.06
2022-12-03T14:17:19.651Z,100668.16
2022-12-03T14:19:46.205Z,100673.44
2022-12-03T14:22:12.807Z,100670.50
2022-12-03T14:24:42.712Z,100676.56
2022-12-03T14:27:11.431Z,100673.75
2022-12-03T14:29:44.764Z,100676.16
2022-12-03T14:32:11.403Z,100675.66
2022-12-03T14:34:37.993Z,100671.88
2022-12-03T14:37:05.159Z,100673.00
2022-12-03T14:39:31.749Z,100679.16
2022-12-03T14:42:13.383Z,100675.72
2022-12-03T14:44:41.104Z,100672.50
2022-12-03T14:47:07.993Z,100677.13
2022-12-03T14:49:34.994Z,100671.94
2022-12-03T14:52:02.148Z,100670.63
2022-12-03T14:54:28.779Z,100672.75
2022-12-03T14:56:55.442Z,100672.75
2022-12-03T14:59:27.355Z,100671.81
2022-12-03T15:01:54.753Z,100681.63
2022-12-03T15:04:21.518Z,100682.06
2022-12-03T15:06:48.069Z,100684.19
2022-12-03T15:09:14.722Z,100687.50
2022-12-03T15:11:45.920Z,100681.09
2022-12-03T15:14:13.034Z,100677.56
2022-12-03T15:16:40.074Z,100687.25
2022-12-03T15:19:06.818Z,100687.25
2022-12-03T15:21:34.943Z,100685.38
2022-12-03T15:24:02.565Z,100685.94
2022-12-03T15:26:29.993Z,100679.25
2022-12-03T15:28:56.545Z,100688.22
2022-12-03T15:31:23.237Z,100692.19
2022-12-03T15:33:49.893Z,100694.56
2022-12-03T15:36:16.832Z,100690.56
2022-12-03T15:38:43.413Z,100689.31
2022-12-03T15:41:24.782Z,100689.72
2022-12-03T15:43:52.629Z,100691.03
2022-12-03T15:46:20.019Z,100689.25
2022-12-03T15:48:47.100Z,100691.28
2022-12-03T15:51:13.819Z,100689.81
2022-12-03T15:53:41.079Z,100695.97
2022-12-03T15:56:07.897Z,100686.34
2022-12-03T15:58:35.099Z,100694.50
2022-12-03T16:01:01.781Z,100689.47
2022-12-03T16:03:28.471Z,100693.50
2022-12-03T16:05:55.150Z,100697.59
2022-12-03T16:08:21.821Z,100689.72
2022-12-03T16:10:49.532Z,100693.03
2022-12-03T16:13:16.198Z,100680.41
2022-12-03T16:15:43.024Z,100695.63
2022-12-03T16:18:09.592Z,100694.78
2022-12-03T16:20:36.160Z,100696.16
2022-12-03T16:23:02.738Z,100695.63
2022-12-03T16:25:29.312Z,100692.81
2022-12-03T16:27:56.563Z,100694.00
2022-12-03T16:30:24.718Z,100689.03
2022-12-03T16:32:51.616Z,100688.47
2022-12-03T16:35:18.323Z,100702.28
2022-12-03T16:37:44.902Z,100700.19
2022-12-03T16:40:12.163Z,100696.41
2022-12-03T16:42:39.090Z,100704.75
2022-12-03T16:45:09.055Z,100706.56
2022-12-03T16:47:38.710Z,100693.97
2022-12-03T16:50:07.883Z,100700.66
2022-12-03T16:52:35.223Z,100698.53
2022-12-03T16:55:02.089Z,100696.06
2022-12-03T16:57:33.665Z,100692.53
2022-12-03T17:00:01.060Z,100681.00
2022-12-03T17:02:27.952Z,100692.66
2022-12-03T17:04:54.825Z,100702.63
2022-12-03T17:07:21.447Z,100697.34
2022-12-03T17:09:48.078Z,100695.50
2022-12-03T17:12:14.839Z,100692.56
2022-12-03T17:14:41.367Z,100694.34
2022-12-03T17:17:07.993Z,100693.03
2022-12-03T17:19:34.596Z,100684.19
2022-12-03T17:22:01.258Z,100692.19
2022-12-03T17:24:28.036Z,100684.72
2022-12-03T17:26:54.576Z,100687.13
2022-12-03T17:29:21.313Z,100693.72
2022-12-03T17:31:48.017Z,100685.84
2022-12-03T17:34:14.992Z,100696.69
2022-12-03T17:36:41.547Z,100687.47
2022-12-03T17:39:08.091Z,100697.03
2022-12-03T17:41:34.646Z,100699.38
2022-12-03T17:44:03.624Z,100693.22
2022-12-03T17:46:33.989Z,100692.62
2022-12-03T17:49:00.678Z,100693.63
2022-12-03T17:51:27.264Z,100694.78
2022-12-03T17:53:53.823Z,100687.47
2022-12-03T17:56:20.740Z,100685.22
2022-12-03T17:58:47.368Z,100688.37
2022-12-03T18:01:14.087Z,100699.00
2022-12-03T18:03:40.704Z,100700.63
2022-12-03T18:06:07.652Z,100696.75
2022-12-03T18:08:34.232Z,100700.66
2022-12-03T18:11:01.005Z,100692.03
2022-12-03T18:13:28.164Z,100694.00
2022-12-03T18:15:54.933Z,100694.19
2022-12-03T18:18:21.527Z,100700.09
2022-12-03T18:20:48.178Z,100699.84
2022-12-03T18:23:14.795Z,100685.91
2022-12-03T18:25:42.090Z,100701.13
2022-12-03T18:28:08.644Z,100700.06
2022-12-03T18:30:35.218Z,100701.16
2022-12-03T18:33:01.805Z,100695.00
2022-12-03T18:35:37.306Z,100700.31
2022-12-03T18:38:03.970Z,100704.34
2022-12-03T18:40:30.885Z,100711.25
2022-12-03T18:42:57.443Z,100704.06
2022-12-03T18:45:24.077Z,100704.78
2022-12-03T18:47:50.733Z,100710.56
2022-12-03T18:50:17.580Z,100710.22
2022-12-03T18:52:44.174Z,100705.19
2022-12-03T18:55:18.555Z,100706.44
2022-12-03T18:57:45.616Z,100696.47
2022-12-03T19:00:13.853Z,100706.75
2022-12-03T19:05:27.312Z,100705.13
2022-12-03T19:07:55.596Z,100688.88
2022-12-03T19:10:22.640Z,100702.16
2022-12-03T19:12:49.377Z,100691.63
2022-12-03T19:15:16.572Z,100697.09
2022-12-03T19:17:47.311Z,100687.72
2022-12-03T19:20:13.931Z,100693.34
2022-12-03T19:22:40.447Z,100700.75
2022-12-03T19:25:07.181Z,100711.19
2022-12-03T19:27:33.801Z,100708.97
2022-12-03T19:30:00.355Z,100711.53
2022-12-03T19:32:26.987Z,100719.03
2022-12-03T19:34:53.572Z,100720.28
2022-12-03T19:37:20.111Z,100712.75
2022-12-03T19:39:46.922Z,100717.38
2022-12-03T19:42:13.480Z,100718.66
2022-12-03T19:44:39.983Z,100719.16
2022-12-03T19:47:06.681Z,100722.16
2022-12-03T19:49:33.301Z,100721.03
2022-12-03T19:51:59.918Z,100725.06
2022-12-03T19:54:26.460Z,100726.38
2022-12-03T19:56:53.039Z,100720.50
2022-12-03T19:59:19.562Z,100720.31
2022-12-03T20:01:46.306Z,100725.88
2022-12-03T20:04:13.670Z,100729.75
2022-12-03T20:06:40.454Z,100726.03
2022-12-03T20:09:13.080Z,100730.16
2022-12-03T20:11:41.148Z,100741.75
2022-12-03T20:14:10.742Z,100738.34
2022-12-03T20:16:37.564Z,100727.38
2022-12-03T20:19:07.086Z,100725.00
2022-12-03T20:21:36.576Z,100730.12
2022-12-03T20:24:04.642Z,100729.44
2022-12-03T20:26:31.451Z,100733.56
2022-12-03T20:28:58.148Z,100722.25
2022-12-03T20:31:30.083Z,100720.53
2022-12-03T20:33:59.471Z,100724.13
2022-12-03T20:36:27.051Z,100724.97
2022-12-03T20:38:55.064Z,100726.25
2022-12-03T20:41:21.851Z,100720.09
2022-12-03T20:43:48.558Z,100719.63
2022-12-03T20:46:24.014Z,100719.19
2022-12-03T20:48:50.882Z,100716.81
2022-12-03T20:51:20.863Z,100715.25
2022-12-03T20:53:47.483Z,100716.38
2022-12-03T20:56:26.170Z,100719.91
2022-12-03T20:58:53.548Z,100719.88
2022-12-03T21:01:29.325Z,100712.59
2022-12-03T21:03:57.000Z,100716.09
2022-12-03T21:06:42.013Z,100713.78
2022-12-03T21:09:09.765Z,100700.47
2022-12-03T21:11:39.080Z,100698.09
2022-12-03T21:14:05.870Z,100704.16
2022-12-03T21:19:22.662Z,100708.44
2022-12-03T21:21:50.043Z,100701.25
2022-12-03T21:24:16.913Z,100698.50
2022-12-03T21:26:43.459Z,100711.69
2022-12-03T21:29:10.291Z,100717.97
2022-12-03T21:31:38.417Z,100715.50
2022-12-03T21:34:05.254Z,100708.00
2022-12-03T21:36:32.318Z,100709.19
2022-12-03T21:39:13.930Z,100703.62
2022-12-03T21:41:40.615Z,100701.25
2022-12-03T21:44:27.148Z,100700.44
2022-12-03T21:47:11.762Z,100691.81
2022-12-03T21:49:40.167Z,100693.44
2022-12-03T21:52:06.695Z,100705.91
2022-12-03T21:54:33.223Z,100700.88
2022-12-03T21:56:59.769Z,100701.50
2022-12-03T21:59:41.401Z,100706.72
2022-12-03T22:02:09.593Z,100700.59
2022-12-03T22:04:36.371Z,100695.13
2022-12-03T22:07:06.039Z,100697.28
2022-12-03T22:09:54.880Z,100694.78
2022-12-03T22:15:42.132Z,100709.69
2022-12-03T22:18:08.718Z,100708.41
2022-12-03T22:20:35.281Z,100700.03
2022-12-03T22:25:37.061Z,100697.16
2022-12-03T22:28:03.793Z,100695.72
2022-12-03T22:30:30.382Z,100690.28
2022-12-03T22:32:56.951Z,100695.41
2022-12-03T22:35:23.474Z,100694.69
2022-12-03T22:37:50.024Z,100691.53
2022-12-03T22:40:35.077Z,100692.06
2022-12-03T22:43:20.701Z,100685.00
2022-12-03T22:45:47.365Z,100685.44
2022-12-03T22:48:15.053Z,100693.12
2022-12-03T22:50:45.656Z,100691.25
2022-12-03T22:53:13.286Z,100694.19
2022-12-03T22:55:40.595Z,100685.22
2022-12-03T23:00:49.849Z,100682.62
2022-12-03T23:03:16.396Z,100672.72
2022-12-03T23:05:43.094Z,100679.78
2022-12-03T23:08:12.960Z,100687.03
2022-12-03T23:10:42.371Z,100675.69
2022-12-03T23:13:33.915Z,100668.00
2022-12-03T23:19:59.481Z,100675.31
2022-12-03T23:22:26.053Z,100675.41
2022-12-03T23:24:52.581Z,100663.00
2022-12-03T23:27:19.117Z,100664.69
2022-12-03T23:30:00.883Z,100665.91
2022-12-03T23:32:27.432Z,100676.63
2022-12-03T23:34:54.084Z,100670.28
2022-12-03T23:37:20.625Z,100667.59
2022-12-03T23:39:50.030Z,100657.34
2022-12-03T23:42:16.559Z,100656.31
2022-12-03T23:44:52.082Z,100668.72
2022-12-03T23:47:18.665Z,100662.66
2022-12-03T23:49:45.284Z,100666.50
2022-12-03T23:52:11.889Z,100656.63
2022-12-03T23:55:03.527Z,100665.44
2022-12-03T23:57:57.580Z,100661.28
